sensor_id;sensor_type;location;lat;lon;timestamp;temperature;humidity
59075;DHT22;44860;53.020;6.738;2022-11-20T00:01:23;-0.50;99.90
59075;DHT22;44860;53.020;6.738;2022-11-20T00:03:54;-0.50;99.90
59075;DHT22;44860;53.020;6.738;2022-11-20T00:06:22;-0.50;99.90
59075;DHT22;44860;53.020;6.738;2022-11-20T00:08:50;-0.40;99.90
59075;DHT22;44860;53.020;6.738;2022-11-20T00:11:21;-0.40;99.90
59075;DHT22;44860;53.020;6.738;2022-11-20T00:13:49;-0.40;99.90
59075;DHT22;44860;53.020;6.738;2022-11-20T00:16:18;-0.30;99.90
59075;DHT22;44860;53.020;6.738;2022-11-20T00:18:45;-0.30;99.90
59075;DHT22;44860;53.020;6.738;2022-11-20T00:21:13;-0.30;99.90
59075;DHT22;44860;53.020;6.738;2022-11-20T00:23:39;-0.30;99.90
59075;DHT22;44860;53.020;6.738;2022-11-20T00:26:13;-0.20;99.90
59075;DHT22;44860;53.020;6.738;2022-11-20T00:28:40;-0.20;99.90
59075;DHT22;44860;53.020;6.738;2022-11-20T00:31:09;-0.20;99.90
59075;DHT22;44860;53.020;6.738;2022-11-20T00:33:37;-0.20;99.90
59075;DHT22;44860;53.020;6.738;2022-11-20T00:36:07;-0.20;99.90
59075;DHT22;44860;53.020;6.738;2022-11-20T00:38:36;-0.20;99.90
59075;DHT22;44860;53.020;6.738;2022-11-20T00:41:06;-0.20;99.90
59075;DHT22;44860;53.020;6.738;2022-11-20T00:43:32;-0.10;99.90
59075;DHT22;44860;53.020;6.738;2022-11-20T00:46:06;-0.10;99.90
59075;DHT22;44860;53.020;6.738;2022-11-20T00:48:32;-0.10;99.90
59075;DHT22;44860;53.020;6.738;2022-11-20T00:50:57;-0.10;99.90
59075;DHT22;44860;53.020;6.738;2022-11-20T00:53:24;-0.10;99.90
59075;DHT22;44860;53.020;6.738;2022-11-20T00:56:01;0.00;99.90
59075;DHT22;44860;53.020;6.738;2022-11-20T00:58:32;0.00;99.90
59075;DHT22;44860;53.020;6.738;2022-11-20T01:01:02;0.00;99.90
59075;DHT22;44860;53.020;6.738;2022-11-20T01:03:31;0.00;99.90
59075;DHT22;44860;53.020;6.738;2022-11-20T01:06:02;0.00;99.90
59075;DHT22;44860;53.020;6.738;2022-11-20T01:08:32;0.00;99.90
59075;DHT22;44860;53.020;6.738;2022-11-20T01:11:14;0.10;99.90
59075;DHT22;44860;53.020;6.738;2022-11-20T01:13:40;0.10;99.90
59075;DHT22;44860;53.020;6.738;2022-11-20T01:18:45;0.10;99.90
59075;DHT22;44860;53.020;6.738;2022-11-20T01:21:14;0.10;99.90
59075;DHT22;44860;53.020;6.738;2022-11-20T01:23:41;0.10;99.90
59075;DHT22;44860;53.020;6.738;2022-11-20T01:26:10;0.20;99.90
59075;DHT22;44860;53.020;6.738;2022-11-20T01:28:36;0.20;99.90
59075;DHT22;44860;53.020;6.738;2022-11-20T01:31:19;0.20;99.90
59075;DHT22;44860;53.020;6.738;2022-11-20T01:33:48;0.10;99.90
59075;DHT22;44860;53.020;6.738;2022-11-20T01:36:14;0.20;99.90
59075;DHT22;44860;53.020;6.738;2022-11-20T01:38:40;0.20;99.90
59075;DHT22;44860;53.020;6.738;2022-11-20T01:41:07;0.20;99.90
59075;DHT22;44860;53.020;6.738;2022-11-20T01:43:34;0.20;99.90
59075;DHT22;44860;53.020;6.738;2022-11-20T01:48:30;0.20;99.90
59075;DHT22;44860;53.020;6.738;2022-11-20T01:50:58;0.20;99.90
59075;DHT22;44860;53.020;6.738;2022-11-20T01:53:29;0.20;99.90
59075;DHT22;44860;53.020;6.738;2022-11-20T01:55:57;0.20;99.90
59075;DHT22;44860;53.020;6.738;2022-11-20T01:58:28;0.20;99.90
59075;DHT22;44860;53.020;6.738;2022-11-20T02:00:58;0.20;99.90
59075;DHT22;44860;53.020;6.738;2022-11-20T02:03:24;0.20;99.90
59075;DHT22;44860;53.020;6.738;2022-11-20T02:08:23;0.20;99.90
59075;DHT22;44860;53.020;6.738;2022-11-20T02:10:49;0.20;99.90
59075;DHT22;44860;53.020;6.738;2022-11-20T02:13:15;0.20;99.90
59075;DHT22;44860;53.020;6.738;2022-11-20T02:16:03;0.30;99.90
59075;DHT22;44860;53.020;6.738;2022-11-20T02:18:30;0.30;99.90
59075;DHT22;44860;53.020;6.738;2022-11-20T02:21:04;0.30;99.90
59075;DHT22;44860;53.020;6.738;2022-11-20T02:26:33;0.40;99.90
59075;DHT22;44860;53.020;6.738;2022-11-20T02:29:01;0.40;99.90
59075;DHT22;44860;53.020;6.738;2022-11-20T02:31:27;0.40;99.90
59075;DHT22;44860;53.020;6.738;2022-11-20T02:33:57;0.40;99.90
59075;DHT22;44860;53.020;6.738;2022-11-20T02:36:25;0.30;99.90
59075;DHT22;44860;53.020;6.738;2022-11-20T02:38:51;0.40;99.90
59075;DHT22;44860;53.020;6.738;2022-11-20T02:41:17;0.40;99.90
59075;DHT22;44860;53.020;6.738;2022-11-20T02:43:43;0.40;99.90
59075;DHT22;44860;53.020;6.738;2022-11-20T02:46:08;0.40;99.90
59075;DHT22;44860;53.020;6.738;2022-11-20T02:48:34;0.40;99.90
59075;DHT22;44860;53.020;6.738;2022-11-20T02:51:00;0.40;99.90
59075;DHT22;44860;53.020;6.738;2022-11-20T02:53:29;0.40;99.90
59075;DHT22;44860;53.020;6.738;2022-11-20T02:55:54;0.40;99.90
59075;DHT22;44860;53.020;6.738;2022-11-20T02:58:24;0.40;99.90
59075;DHT22;44860;53.020;6.738;2022-11-20T03:00:49;0.40;99.90
59075;DHT22;44860;53.020;6.738;2022-11-20T03:03:18;0.40;99.90
59075;DHT22;44860;53.020;6.738;2022-11-20T03:05:43;0.40;99.90
59075;DHT22;44860;53.020;6.738;2022-11-20T03:08:09;0.40;99.90
59075;DHT22;44860;53.020;6.738;2022-11-20T03:10:35;0.40;99.90
59075;DHT22;44860;53.020;6.738;2022-11-20T03:13:02;0.40;99.90
59075;DHT22;44860;53.020;6.738;2022-11-20T03:15:28;0.40;99.90
59075;DHT22;44860;53.020;6.738;2022-11-20T03:17:55;0.40;99.90
59075;DHT22;44860;53.020;6.738;2022-11-20T03:20:21;0.40;99.90
59075;DHT22;44860;53.020;6.738;2022-11-20T03:22:50;0.40;99.90
59075;DHT22;44860;53.020;6.738;2022-11-20T03:25:16;0.40;99.90
59075;DHT22;44860;53.020;6.738;2022-11-20T03:27:41;0.40;99.90
59075;DHT22;44860;53.020;6.738;2022-11-20T03:30:07;0.40;99.90
59075;DHT22;44860;53.020;6.738;2022-11-20T03:32:33;0.40;99.90
59075;DHT22;44860;53.020;6.738;2022-11-20T03:34:59;0.50;99.90
59075;DHT22;44860;53.020;6.738;2022-11-20T03:37:24;0.50;99.90
59075;DHT22;44860;53.020;6.738;2022-11-20T03:39:50;0.50;99.90
59075;DHT22;44860;53.020;6.738;2022-11-20T03:42:16;0.50;99.90
59075;DHT22;44860;53.020;6.738;2022-11-20T03:45:00;0.50;99.90
59075;DHT22;44860;53.020;6.738;2022-11-20T03:47:25;0.50;99.90
59075;DHT22;44860;53.020;6.738;2022-11-20T03:49:51;0.50;99.90
59075;DHT22;44860;53.020;6.738;2022-11-20T03:52:17;0.50;99.90
59075;DHT22;44860;53.020;6.738;2022-11-20T03:54:42;0.50;99.90
59075;DHT22;44860;53.020;6.738;2022-11-20T03:57:08;0.50;99.90
59075;DHT22;44860;53.020;6.738;2022-11-20T03:59:33;0.50;99.90
59075;DHT22;44860;53.020;6.738;2022-11-20T04:01:59;0.50;99.90
59075;DHT22;44860;53.020;6.738;2022-11-20T04:04:25;0.50;99.90
59075;DHT22;44860;53.020;6.738;2022-11-20T04:06:50;0.60;99.90
59075;DHT22;44860;53.020;6.738;2022-11-20T04:09:16;0.60;99.90
59075;DHT22;44860;53.020;6.738;2022-11-20T04:11:41;0.70;99.90
59075;DHT22;44860;53.020;6.738;2022-11-20T04:14:13;0.60;99.90
59075;DHT22;44860;53.020;6.738;2022-11-20T04:16:39;0.70;99.90
59075;DHT22;44860;53.020;6.738;2022-11-20T04:19:06;0.70;99.90
59075;DHT22;44860;53.020;6.738;2022-11-20T04:21:34;0.70;99.90
59075;DHT22;44860;53.020;6.738;2022-11-20T04:24:00;0.70;99.90
59075;DHT22;44860;53.020;6.738;2022-11-20T04:26:27;0.70;99.90
59075;DHT22;44860;53.020;6.738;2022-11-20T04:28:53;0.70;99.90
59075;DHT22;44860;53.020;6.738;2022-11-20T04:31:25;0.70;99.90
59075;DHT22;44860;53.020;6.738;2022-11-20T04:33:51;0.70;99.90
59075;DHT22;44860;53.020;6.738;2022-11-20T04:36:19;0.70;99.90
59075;DHT22;44860;53.020;6.738;2022-11-20T04:38:45;0.70;99.90
59075;DHT22;44860;53.020;6.738;2022-11-20T04:41:15;0.70;99.90
59075;DHT22;44860;53.020;6.738;2022-11-20T04:43:41;0.70;99.90
59075;DHT22;44860;53.020;6.738;2022-11-20T04:46:11;0.80;99.90
59075;DHT22;44860;53.020;6.738;2022-11-20T04:48:36;0.80;99.90
59075;DHT22;44860;53.020;6.738;2022-11-20T04:51:05;0.80;99.90
59075;DHT22;44860;53.020;6.738;2022-11-20T04:53:31;0.80;99.90
59075;DHT22;44860;53.020;6.738;2022-11-20T04:56:06;0.80;99.90
59075;DHT22;44860;53.020;6.738;2022-11-20T04:58:32;0.80;99.90
59075;DHT22;44860;53.020;6.738;2022-11-20T05:01:03;0.80;99.90
59075;DHT22;44860;53.020;6.738;2022-11-20T05:03:29;0.80;99.90
59075;DHT22;44860;53.020;6.738;2022-11-20T05:05:55;0.80;99.90
59075;DHT22;44860;53.020;6.738;2022-11-20T05:08:21;0.80;99.90
59075;DHT22;44860;53.020;6.738;2022-11-20T05:10:46;0.80;99.90
59075;DHT22;44860;53.020;6.738;2022-11-20T05:13:12;0.80;99.90
59075;DHT22;44860;53.020;6.738;2022-11-20T05:15:37;0.80;99.90
59075;DHT22;44860;53.020;6.738;2022-11-20T05:18:03;0.80;99.90
59075;DHT22;44860;53.020;6.738;2022-11-20T05:20:29;0.80;99.90
59075;DHT22;44860;53.020;6.738;2022-11-20T05:22:58;0.80;99.90
59075;DHT22;44860;53.020;6.738;2022-11-20T05:25:23;0.80;99.90
59075;DHT22;44860;53.020;6.738;2022-11-20T05:27:49;0.80;99.90
59075;DHT22;44860;53.020;6.738;2022-11-20T05:30:15;0.80;99.90
59075;DHT22;44860;53.020;6.738;2022-11-20T05:32:41;0.80;99.90
59075;DHT22;44860;53.020;6.738;2022-11-20T05:35:06;0.80;99.90
59075;DHT22;44860;53.020;6.738;2022-11-20T05:37:32;0.80;99.90
59075;DHT22;44860;53.020;6.738;2022-11-20T05:39:58;0.90;99.90
59075;DHT22;44860;53.020;6.738;2022-11-20T05:42:24;0.80;99.90
59075;DHT22;44860;53.020;6.738;2022-11-20T05:44:55;0.90;99.90
59075;DHT22;44860;53.020;6.738;2022-11-20T05:47:21;0.90;99.90
59075;DHT22;44860;53.020;6.738;2022-11-20T05:49:47;0.90;99.90
59075;DHT22;44860;53.020;6.738;2022-11-20T05:52:12;0.90;99.90
59075;DHT22;44860;53.020;6.738;2022-11-20T05:54:38;0.90;99.90
59075;DHT22;44860;53.020;6.738;2022-11-20T05:57:04;0.80;99.90
59075;DHT22;44860;53.020;6.738;2022-11-20T05:59:30;0.80;99.90
59075;DHT22;44860;53.020;6.738;2022-11-20T06:01:55;0.80;99.90
59075;DHT22;44860;53.020;6.738;2022-11-20T06:04:21;0.80;99.90
59075;DHT22;44860;53.020;6.738;2022-11-20T06:06:47;0.80;99.90
59075;DHT22;44860;53.020;6.738;2022-11-20T06:09:12;0.80;99.90
59075;DHT22;44860;53.020;6.738;2022-11-20T06:11:38;0.90;99.90
59075;DHT22;44860;53.020;6.738;2022-11-20T06:14:04;0.90;99.90
59075;DHT22;44860;53.020;6.738;2022-11-20T06:16:29;0.80;99.90
59075;DHT22;44860;53.020;6.738;2022-11-20T06:18:55;0.80;99.90
59075;DHT22;44860;53.020;6.738;2022-11-20T06:21:22;0.80;99.90
59075;DHT22;44860;53.020;6.738;2022-11-20T06:23:48;0.80;99.90
59075;DHT22;44860;53.020;6.738;2022-11-20T06:26:17;0.80;99.90
59075;DHT22;44860;53.020;6.738;2022-11-20T06:28:43;0.80;99.90
59075;DHT22;44860;53.020;6.738;2022-11-20T06:31:12;0.80;99.90
59075;DHT22;44860;53.020;6.738;2022-11-20T06:33:39;0.80;99.90
59075;DHT22;44860;53.020;6.738;2022-11-20T06:36:05;0.80;99.90
59075;DHT22;44860;53.020;6.738;2022-11-20T06:38:31;0.80;99.90
59075;DHT22;44860;53.020;6.738;2022-11-20T06:40:57;0.80;99.90
59075;DHT22;44860;53.020;6.738;2022-11-20T06:43:23;0.80;99.90
59075;DHT22;44860;53.020;6.738;2022-11-20T06:45:56;0.80;99.90
59075;DHT22;44860;53.020;6.738;2022-11-20T06:48:23;0.90;99.90
59075;DHT22;44860;53.020;6.738;2022-11-20T06:50:49;0.90;99.90
59075;DHT22;44860;53.020;6.738;2022-11-20T06:53:15;0.90;99.90
59075;DHT22;44860;53.020;6.738;2022-11-20T06:55:45;0.90;99.90
59075;DHT22;44860;53.020;6.738;2022-11-20T06:58:12;0.90;99.90
59075;DHT22;44860;53.020;6.738;2022-11-20T07:00:38;0.90;99.90
59075;DHT22;44860;53.020;6.738;2022-11-20T07:03:05;0.90;99.90
59075;DHT22;44860;53.020;6.738;2022-11-20T07:05:30;0.90;99.90
59075;DHT22;44860;53.020;6.738;2022-11-20T07:07:57;1.00;99.90
59075;DHT22;44860;53.020;6.738;2022-11-20T07:10:23;1.00;99.90
59075;DHT22;44860;53.020;6.738;2022-11-20T07:12:52;1.00;99.90
59075;DHT22;44860;53.020;6.738;2022-11-20T07:15:20;1.00;99.90
59075;DHT22;44860;53.020;6.738;2022-11-20T07:17:46;1.00;99.90
59075;DHT22;44860;53.020;6.738;2022-11-20T07:20:12;1.00;99.90
59075;DHT22;44860;53.020;6.738;2022-11-20T07:22:38;0.90;99.90
59075;DHT22;44860;53.020;6.738;2022-11-20T07:25:04;0.90;99.90
59075;DHT22;44860;53.020;6.738;2022-11-20T07:27:30;0.90;99.90
59075;DHT22;44860;53.020;6.738;2022-11-20T07:29:55;0.90;99.90
59075;DHT22;44860;53.020;6.738;2022-11-20T07:32:21;0.80;99.90
59075;DHT22;44860;53.020;6.738;2022-11-20T07:34:47;0.90;99.90
59075;DHT22;44860;53.020;6.738;2022-11-20T07:37:13;0.90;99.90
59075;DHT22;44860;53.020;6.738;2022-11-20T07:39:39;0.90;99.90
59075;DHT22;44860;53.020;6.738;2022-11-20T07:42:06;0.90;99.90
59075;DHT22;44860;53.020;6.738;2022-11-20T07:44:32;0.90;99.90
59075;DHT22;44860;53.020;6.738;2022-11-20T07:46:57;0.90;99.90
59075;DHT22;44860;53.020;6.738;2022-11-20T07:49:23;0.90;99.90
59075;DHT22;44860;53.020;6.738;2022-11-20T07:51:52;0.90;99.90
59075;DHT22;44860;53.020;6.738;2022-11-20T07:54:21;0.90;99.90
59075;DHT22;44860;53.020;6.738;2022-11-20T07:56:48;0.90;99.90
59075;DHT22;44860;53.020;6.738;2022-11-20T07:59:14;1.00;99.90
59075;DHT22;44860;53.020;6.738;2022-11-20T08:01:41;1.00;99.90
59075;DHT22;44860;53.020;6.738;2022-11-20T08:04:07;1.00;99.90
59075;DHT22;44860;53.020;6.738;2022-11-20T08:06:33;0.90;99.90
59075;DHT22;44860;53.020;6.738;2022-11-20T08:08:58;1.00;99.90
59075;DHT22;44860;53.020;6.738;2022-11-20T08:11:24;1.00;99.90
59075;DHT22;44860;53.020;6.738;2022-11-20T08:14:08;1.00;99.90
59075;DHT22;44860;53.020;6.738;2022-11-20T08:16:40;1.00;99.90
59075;DHT22;44860;53.020;6.738;2022-11-20T08:19:06;1.00;99.90
59075;DHT22;44860;53.020;6.738;2022-11-20T08:21:32;1.00;99.90
59075;DHT22;44860;53.020;6.738;2022-11-20T08:23:59;1.00;99.90
59075;DHT22;44860;53.020;6.738;2022-11-20T08:26:25;1.10;99.90
59075;DHT22;44860;53.020;6.738;2022-11-20T08:28:55;1.10;99.90
59075;DHT22;44860;53.020;6.738;2022-11-20T08:31:21;1.10;99.90
59075;DHT22;44860;53.020;6.738;2022-11-20T08:33:47;1.10;99.90
59075;DHT22;44860;53.020;6.738;2022-11-20T08:36:13;1.10;99.90
59075;DHT22;44860;53.020;6.738;2022-11-20T08:38:39;1.10;99.90
59075;DHT22;44860;53.020;6.738;2022-11-20T08:41:05;1.10;99.90
59075;DHT22;44860;53.020;6.738;2022-11-20T08:43:58;1.10;99.90
59075;DHT22;44860;53.020;6.738;2022-11-20T08:46:31;1.10;99.90
59075;DHT22;44860;53.020;6.738;2022-11-20T08:48:58;1.10;99.90
59075;DHT22;44860;53.020;6.738;2022-11-20T08:51:24;1.10;99.90
59075;DHT22;44860;53.020;6.738;2022-11-20T08:53:50;1.10;99.90
59075;DHT22;44860;53.020;6.738;2022-11-20T08:56:16;1.10;99.90
59075;DHT22;44860;53.020;6.738;2022-11-20T08:58:42;1.10;99.90
59075;DHT22;44860;53.020;6.738;2022-11-20T09:01:08;1.10;99.90
59075;DHT22;44860;53.020;6.738;2022-11-20T09:03:33;1.20;99.90
59075;DHT22;44860;53.020;6.738;2022-11-20T09:06:04;1.20;99.90
59075;DHT22;44860;53.020;6.738;2022-11-20T09:08:32;1.20;99.90
59075;DHT22;44860;53.020;6.738;2022-11-20T09:10:58;1.20;99.90
59075;DHT22;44860;53.020;6.738;2022-11-20T09:13:25;1.10;99.90
59075;DHT22;44860;53.020;6.738;2022-11-20T09:16:03;1.20;99.90
59075;DHT22;44860;53.020;6.738;2022-11-20T09:18:30;1.20;99.90
59075;DHT22;44860;53.020;6.738;2022-11-20T09:21:00;1.20;99.90
59075;DHT22;44860;53.020;6.738;2022-11-20T09:23:27;1.20;99.90
59075;DHT22;44860;53.020;6.738;2022-11-20T09:25:52;1.20;99.90
59075;DHT22;44860;53.020;6.738;2022-11-20T09:28:21;1.20;99.90
59075;DHT22;44860;53.020;6.738;2022-11-20T09:30:46;1.20;99.90
59075;DHT22;44860;53.020;6.738;2022-11-20T09:33:12;1.30;99.90
59075;DHT22;44860;53.020;6.738;2022-11-20T09:35:38;1.20;99.90
59075;DHT22;44860;53.020;6.738;2022-11-20T09:38:07;1.30;99.90
59075;DHT22;44860;53.020;6.738;2022-11-20T09:40:34;1.30;99.90
59075;DHT22;44860;53.020;6.738;2022-11-20T09:43:28;1.30;99.90
59075;DHT22;44860;53.020;6.738;2022-11-20T09:46:21;1.30;99.90
59075;DHT22;44860;53.020;6.738;2022-11-20T09:52:11;1.30;99.90
59075;DHT22;44860;53.020;6.738;2022-11-20T09:54:35;1.40;99.90
59075;DHT22;44860;53.020;6.738;2022-11-20T09:57:15;1.40;99.90
59075;DHT22;44860;53.020;6.738;2022-11-20T09:59:50;1.40;99.90
59075;DHT22;44860;53.020;6.738;2022-11-20T10:08:22;1.40;99.90
59075;DHT22;44860;53.020;6.738;2022-11-20T10:10:54;1.50;99.90
59075;DHT22;44860;53.020;6.738;2022-11-20T10:13:45;1.50;99.90
59075;DHT22;44860;53.020;6.738;2022-11-20T10:16:16;1.50;99.90
59075;DHT22;44860;53.020;6.738;2022-11-20T10:21:30;1.50;99.90
59075;DHT22;44860;53.020;6.738;2022-11-20T10:29:15;1.50;99.90
59075;DHT22;44860;53.020;6.738;2022-11-20T10:31:56;1.60;99.90
59075;DHT22;44860;53.020;6.738;2022-11-20T10:37:16;1.70;99.90
59075;DHT22;44860;53.020;6.738;2022-11-20T10:40:06;1.70;99.90
59075;DHT22;44860;53.020;6.738;2022-11-20T10:47:54;1.80;99.90
59075;DHT22;44860;53.020;6.738;2022-11-20T10:50:22;1.80;99.90
59075;DHT22;44860;53.020;6.738;2022-11-20T10:56:00;2.00;99.90
59075;DHT22;44860;53.020;6.738;2022-11-20T11:01:19;2.10;99.90
59075;DHT22;44860;53.020;6.738;2022-11-20T11:03:48;2.10;99.90
59075;DHT22;44860;53.020;6.738;2022-11-20T11:06:37;2.10;99.90
59075;DHT22;44860;53.020;6.738;2022-11-20T11:09:29;2.10;99.90
59075;DHT22;44860;53.020;6.738;2022-11-20T11:11:57;2.20;99.90
59075;DHT22;44860;53.020;6.738;2022-11-20T11:14:23;2.20;99.90
59075;DHT22;44860;53.020;6.738;2022-11-20T11:16:54;2.20;99.90
59075;DHT22;44860;53.020;6.738;2022-11-20T11:19:21;2.20;99.90
59075;DHT22;44860;53.020;6.738;2022-11-20T11:21:49;2.30;99.90
59075;DHT22;44860;53.020;6.738;2022-11-20T11:24:27;2.30;99.90
59075;DHT22;44860;53.020;6.738;2022-11-20T11:27:01;2.30;99.90
59075;DHT22;44860;53.020;6.738;2022-11-20T11:29:32;2.30;99.90
59075;DHT22;44860;53.020;6.738;2022-11-20T11:34:30;2.40;99.90
59075;DHT22;44860;53.020;6.738;2022-11-20T11:36:59;2.40;99.90
59075;DHT22;44860;53.020;6.738;2022-11-20T11:39:27;2.40;99.90
59075;DHT22;44860;53.020;6.738;2022-11-20T11:41:54;2.40;99.90
59075;DHT22;44860;53.020;6.738;2022-11-20T11:44:31;2.40;99.90
59075;DHT22;44860;53.020;6.738;2022-11-20T11:47:25;2.50;99.90
59075;DHT22;44860;53.020;6.738;2022-11-20T11:52:53;2.50;99.90
59075;DHT22;44860;53.020;6.738;2022-11-20T11:55:31;2.50;99.90
59075;DHT22;44860;53.020;6.738;2022-11-20T12:00:37;2.50;99.90
59075;DHT22;44860;53.020;6.738;2022-11-20T12:03:38;2.50;99.90
59075;DHT22;44860;53.020;6.738;2022-11-20T12:06:05;2.50;99.90
59075;DHT22;44860;53.020;6.738;2022-11-20T12:08:56;2.50;99.90
59075;DHT22;44860;53.020;6.738;2022-11-20T12:14:20;2.60;99.90
59075;DHT22;44860;53.020;6.738;2022-11-20T12:16:50;2.60;99.90
59075;DHT22;44860;53.020;6.738;2022-11-20T12:19:16;2.60;99.90
59075;DHT22;44860;53.020;6.738;2022-11-20T12:30:16;2.70;99.90
59075;DHT22;44860;53.020;6.738;2022-11-20T12:50:28;2.90;99.90
59075;DHT22;44860;53.020;6.738;2022-11-20T12:53:16;2.90;99.90
59075;DHT22;44860;53.020;6.738;2022-11-20T12:58:31;2.90;99.90
59075;DHT22;44860;53.020;6.738;2022-11-20T13:01:00;3.00;99.90
59075;DHT22;44860;53.020;6.738;2022-11-20T13:03:53;3.00;99.90
59075;DHT22;44860;53.020;6.738;2022-11-20T13:06:24;3.00;99.90
59075;DHT22;44860;53.020;6.738;2022-11-20T13:08:56;3.00;99.90
59075;DHT22;44860;53.020;6.738;2022-11-20T13:14:09;3.00;99.90
59075;DHT22;44860;53.020;6.738;2022-11-20T13:19:17;3.20;99.90
59075;DHT22;44860;53.020;6.738;2022-11-20T13:21:45;3.20;99.90
59075;DHT22;44860;53.020;6.738;2022-11-20T13:27:18;3.30;99.90
59075;DHT22;44860;53.020;6.738;2022-11-20T13:29:47;3.30;99.90
59075;DHT22;44860;53.020;6.738;2022-11-20T13:32:24;3.30;99.90
59075;DHT22;44860;53.020;6.738;2022-11-20T13:34:57;3.30;99.90
59075;DHT22;44860;53.020;6.738;2022-11-20T13:37:34;3.30;99.90
59075;DHT22;44860;53.020;6.738;2022-11-20T13:40:13;3.30;99.90
59075;DHT22;44860;53.020;6.738;2022-11-20T13:42:53;3.30;99.90
59075;DHT22;44860;53.020;6.738;2022-11-20T13:45:28;3.30;99.90
59075;DHT22;44860;53.020;6.738;2022-11-20T13:47:56;3.40;99.90
59075;DHT22;44860;53.020;6.738;2022-11-20T13:50:40;3.40;99.90
59075;DHT22;44860;53.020;6.738;2022-11-20T13:56:07;3.50;99.90
59075;DHT22;44860;53.020;6.738;2022-11-20T13:59:05;3.50;99.90
59075;DHT22;44860;53.020;6.738;2022-11-20T14:01:33;3.50;99.90
59075;DHT22;44860;53.020;6.738;2022-11-20T14:04:06;3.50;99.90
59075;DHT22;44860;53.020;6.738;2022-11-20T14:06:42;3.40;99.90
59075;DHT22;44860;53.020;6.738;2022-11-20T14:09:29;3.50;99.90
59075;DHT22;44860;53.020;6.738;2022-11-20T14:11:55;3.50;99.90
59075;DHT22;44860;53.020;6.738;2022-11-20T14:14:25;3.50;99.90
59075;DHT22;44860;53.020;6.738;2022-11-20T14:16:53;3.50;99.90
59075;DHT22;44860;53.020;6.738;2022-11-20T14:19:28;3.50;99.90
59075;DHT22;44860;53.020;6.738;2022-11-20T14:22:15;3.40;99.90
59075;DHT22;44860;53.020;6.738;2022-11-20T14:24:43;3.40;99.90
59075;DHT22;44860;53.020;6.738;2022-11-20T14:27:17;3.40;99.90
59075;DHT22;44860;53.020;6.738;2022-11-20T14:29:45;3.40;99.90
59075;DHT22;44860;53.020;6.738;2022-11-20T14:32:12;3.40;99.90
59075;DHT22;44860;53.020;6.738;2022-11-20T14:34:41;3.40;99.90
59075;DHT22;44860;53.020;6.738;2022-11-20T14:37:13;3.40;99.90
59075;DHT22;44860;53.020;6.738;2022-11-20T14:39:49;3.40;99.90
59075;DHT22;44860;53.020;6.738;2022-11-20T14:42:20;3.30;99.90
59075;DHT22;44860;53.020;6.738;2022-11-20T14:44:48;3.40;99.90
59075;DHT22;44860;53.020;6.738;2022-11-20T14:47:27;3.30;99.90
59075;DHT22;44860;53.020;6.738;2022-11-20T14:49:55;3.30;99.90
59075;DHT22;44860;53.020;6.738;2022-11-20T14:52:23;3.30;99.90
59075;DHT22;44860;53.020;6.738;2022-11-20T14:54:54;3.30;99.90
59075;DHT22;44860;53.020;6.738;2022-11-20T15:02:42;3.20;99.90
59075;DHT22;44860;53.020;6.738;2022-11-20T15:05:08;3.20;99.90
59075;DHT22;44860;53.020;6.738;2022-11-20T15:07:40;3.20;99.90
59075;DHT22;44860;53.020;6.738;2022-11-20T15:10:29;3.10;99.90
59075;DHT22;44860;53.020;6.738;2022-11-20T15:13:03;3.10;99.90
59075;DHT22;44860;53.020;6.738;2022-11-20T15:15:36;3.10;99.90
59075;DHT22;44860;53.020;6.738;2022-11-20T15:18:04;3.00;99.90
59075;DHT22;44860;53.020;6.738;2022-11-20T15:20:36;3.00;99.90
59075;DHT22;44860;53.020;6.738;2022-11-20T15:23:01;3.00;99.90
59075;DHT22;44860;53.020;6.738;2022-11-20T15:25:27;2.90;99.90
59075;DHT22;44860;53.020;6.738;2022-11-20T15:27:55;2.90;99.90
59075;DHT22;44860;53.020;6.738;2022-11-20T15:30:22;2.80;99.90
59075;DHT22;44860;53.020;6.738;2022-11-20T15:32:48;2.80;99.90
59075;DHT22;44860;53.020;6.738;2022-11-20T15:35:14;2.80;99.90
59075;DHT22;44860;53.020;6.738;2022-11-20T15:37:40;2.80;99.90
59075;DHT22;44860;53.020;6.738;2022-11-20T15:40:07;2.70;99.90
59075;DHT22;44860;53.020;6.738;2022-11-20T15:42:33;2.80;99.90
59075;DHT22;44860;53.020;6.738;2022-11-20T15:45:00;2.80;99.90
59075;DHT22;44860;53.020;6.738;2022-11-20T15:47:29;2.70;99.90
59075;DHT22;44860;53.020;6.738;2022-11-20T15:49:56;2.70;99.90
59075;DHT22;44860;53.020;6.738;2022-11-20T15:52:22;2.70;99.90
59075;DHT22;44860;53.020;6.738;2022-11-20T15:54:47;2.70;99.90
59075;DHT22;44860;53.020;6.738;2022-11-20T15:57:13;2.70;99.90
59075;DHT22;44860;53.020;6.738;2022-11-20T15:59:39;2.60;99.90
59075;DHT22;44860;53.020;6.738;2022-11-20T16:02:14;2.70;99.90
59075;DHT22;44860;53.020;6.738;2022-11-20T16:04:40;2.60;99.90
59075;DHT22;44860;53.020;6.738;2022-11-20T16:07:06;2.60;99.90
59075;DHT22;44860;53.020;6.738;2022-11-20T16:09:32;2.60;99.90
59075;DHT22;44860;53.020;6.738;2022-11-20T16:11:58;2.60;99.90
59075;DHT22;44860;53.020;6.738;2022-11-20T16:14:26;2.60;99.90
59075;DHT22;44860;53.020;6.738;2022-11-20T16:17:10;2.60;99.90
59075;DHT22;44860;53.020;6.738;2022-11-20T16:19:36;2.60;99.90
59075;DHT22;44860;53.020;6.738;2022-11-20T16:22:02;2.60;99.90
59075;DHT22;44860;53.020;6.738;2022-11-20T16:24:27;2.60;99.90
59075;DHT22;44860;53.020;6.738;2022-11-20T16:26:54;2.50;99.90
59075;DHT22;44860;53.020;6.738;2022-11-20T16:29:19;2.50;99.90
59075;DHT22;44860;53.020;6.738;2022-11-20T16:31:45;2.50;99.90
59075;DHT22;44860;53.020;6.738;2022-11-20T16:34:11;2.40;99.90
59075;DHT22;44860;53.020;6.738;2022-11-20T16:36:40;2.50;99.90
59075;DHT22;44860;53.020;6.738;2022-11-20T16:39:06;2.40;99.90
59075;DHT22;44860;53.020;6.738;2022-11-20T16:41:33;2.50;99.90
59075;DHT22;44860;53.020;6.738;2022-11-20T16:44:01;2.40;99.90
59075;DHT22;44860;53.020;6.738;2022-11-20T16:46:31;2.40;99.90
59075;DHT22;44860;53.020;6.738;2022-11-20T16:51:24;2.40;99.90
59075;DHT22;44860;53.020;6.738;2022-11-20T16:53:50;2.40;99.90
59075;DHT22;44860;53.020;6.738;2022-11-20T16:56:21;2.40;99.90
59075;DHT22;44860;53.020;6.738;2022-11-20T16:58:49;2.40;99.90
59075;DHT22;44860;53.020;6.738;2022-11-20T17:01:17;2.40;99.90
59075;DHT22;44860;53.020;6.738;2022-11-20T17:03:46;2.40;99.90
59075;DHT22;44860;53.020;6.738;2022-11-20T17:06:20;2.40;99.90
59075;DHT22;44860;53.020;6.738;2022-11-20T17:08:46;2.40;99.90
59075;DHT22;44860;53.020;6.738;2022-11-20T17:11:15;2.40;99.90
59075;DHT22;44860;53.020;6.738;2022-11-20T17:13:41;2.40;99.90
59075;DHT22;44860;53.020;6.738;2022-11-20T17:16:14;2.40;99.90
59075;DHT22;44860;53.020;6.738;2022-11-20T17:18:41;2.40;99.90
59075;DHT22;44860;53.020;6.738;2022-11-20T17:21:07;2.40;99.90
59075;DHT22;44860;53.020;6.738;2022-11-20T17:23:38;2.30;99.90
59075;DHT22;44860;53.020;6.738;2022-11-20T17:26:15;2.30;99.90
59075;DHT22;44860;53.020;6.738;2022-11-20T17:28:43;2.30;99.90
59075;DHT22;44860;53.020;6.738;2022-11-20T17:31:15;2.30;99.90
59075;DHT22;44860;53.020;6.738;2022-11-20T17:33:42;2.30;99.90
59075;DHT22;44860;53.020;6.738;2022-11-20T17:36:09;2.30;99.90
59075;DHT22;44860;53.020;6.738;2022-11-20T17:38:35;2.30;99.90